Temp: 13.9°C   Baro: 1018.4mb
  Wind: 2.0mph   Dir: ENE (67°)
  Rain: 0.0mm (0.0mm/hr)
  Solar: 0W/m2  Hum: 84%
 
Bath Spa Weather Station Historical Data
Daily Summary for February 14, 2020 Units:  Both    English   Metric
Daily Weekly Monthly Yearly Custom
  High: Low: Average:
Temperature: 52.7 °F /  11.5 °C 37 °F /  2.8 °C 47 °F /  8.3 °C
Dew Point: 50.4 °F /  10.2 °C 34.9 °F /  1.6 °C 43.8 °F /  6.6 °C
Humidity: 93.4% 78% 89%
Wind Speed: 15mph /  24.1km/h - 4.7mph /  7.6km/h
Wind Gust: 27mph /  43.5km/h - -
Wind- - SW
Pressure: 30.03 in /  1016.8 hPa 29.91 in /  1012.8 hPa -
Precipitation: 0.16 in /  4.06 mm    
Historical Graphs
 
 
Tabular Data for February 14, 2020
Time Temperature Dew Point Pressure Wind Wind Speed Wind Gust Humidity Rainfall Rate (Hourly) solar
00:04 44.4 °F /  6.9 °C 38.3 °F /  3.5 °C 29.92in /  1013.1hPa WNW 0.5mph /  0.8km/h 3mph /  4.8km/h 79% 0.00in /  0mm 0 W/m2
00:09 44.4 °F /  6.9 °C 38.3 °F /  3.5 °C 29.93in /  1013.4hPa West 2.2mph /  3.5km/h 4mph /  6.4km/h 79% 0.00in /  0mm 0 W/m2
00:14 44.3 °F /  6.8 °C 38.6 °F /  3.7 °C 29.92in /  1013.1hPa West 0.4mph /  0.6km/h 3mph /  4.8km/h 80% 0.00in /  0mm 0 W/m2
00:19 44.2 °F /  6.8 °C 38.5 °F /  3.6 °C 29.92in /  1013.1hPa West 0.4mph /  0.6km/h 2mph /  3.2km/h 80% 0.00in /  0mm 0 W/m2
00:24 44.1 °F /  6.7 °C 38.3 °F /  3.5 °C 29.92in /  1013.1hPa Calm   1mph /  1.6km/h 80% 0.00in /  0mm 0 W/m2
00:29 44 °F /  6.7 °C 38.2 °F /  3.4 °C 29.92in /  1013.1hPa Calm     80% 0.00in /  0mm 0 W/m2
00:34 43.7 °F /  6.5 °C 38.2 °F /  3.4 °C 29.93in /  1013.4hPa Calm     80.8% 0.00in /  0mm 0 W/m2
00:39 43.3 °F /  6.3 °C 37.9 °F /  3.3 °C 29.93in /  1013.4hPa Calm     81% 0.00in /  0mm 0 W/m2
00:44 43 °F /  6.1 °C 37.9 °F /  3.3 °C 29.93in /  1013.4hPa West 1.6mph /  2.6km/h 3mph /  4.8km/h 81.8% 0.00in /  0mm 0 W/m2
00:49 42.5 °F /  5.8 °C 37.5 °F /  3.1 °C 29.93in /  1013.4hPa West 0.4mph /  0.6km/h 2mph /  3.2km/h 82.2% 0.00in /  0mm 0 W/m2
00:54 42.2 °F /  5.7 °C 37.3 °F /  2.9 °C 29.94in /  1013.8hPa West 1.6mph /  2.6km/h 3mph /  4.8km/h 83% 0.00in /  0mm 0 W/m2
00:59 41.7 °F /  5.4 °C 37.1 °F /  2.8 °C 29.94in /  1013.8hPa West 0.4mph /  0.6km/h 2mph /  3.2km/h 83.6% 0.00in /  0mm 0 W/m2
01:04 41.4 °F /  5.2 °C 36.9 °F /  2.7 °C 29.95in /  1014.1hPa West 0.7mph /  1.1km/h 2mph /  3.2km/h 84% 0.00in /  0mm 0 W/m2
01:09 41.2 °F /  5.1 °C 36.9 °F /  2.7 °C 29.96in /  1014.4hPa West 1.3mph /  2.1km/h 3mph /  4.8km/h 84.6% 0.00in /  0mm 0 W/m2
01:14 40.8 °F /  4.9 °C 36.7 °F /  2.6 °C 29.95in /  1014.1hPa NW 2.7mph /  4.3km/h 4mph /  6.4km/h 85% 0.00in /  0mm 0 W/m2
01:19 40.8 °F /  4.9 °C 36.9 °F /  2.7 °C 29.96in /  1014.4hPa NNW 1.3mph /  2.1km/h 3mph /  4.8km/h 85.8% 0.00in /  0mm 0 W/m2
01:24 40.8 °F /  4.9 °C 37 °F /  2.8 °C 29.96in /  1014.4hPa NNW 2.1mph /  3.4km/h 3mph /  4.8km/h 86% 0.00in /  0mm 0 W/m2
01:29 40.9 °F /  4.9 °C 37.1 °F /  2.8 °C 29.96in /  1014.4hPa NNW 0.4mph /  0.6km/h 2mph /  3.2km/h 86% 0.00in /  0mm 0 W/m2
01:34 40.8 °F /  4.9 °C 37 °F /  2.8 °C 29.96in /  1014.4hPa NNW 0.2mph /  0.3km/h 2mph /  3.2km/h 86% 0.00in /  0mm 0 W/m2
01:39 40.8 °F /  4.9 °C 37 °F /  2.8 °C 29.96in /  1014.4hPa NNW 0.6mph /  1km/h 2mph /  3.2km/h 86% 0.00in /  0mm 0 W/m2
01:44 40.8 °F /  4.9 °C 37.1 °F /  2.8 °C 29.96in /  1014.4hPa NNW 0.4mph /  0.6km/h 2mph /  3.2km/h 86.4% 0.00in /  0mm 0 W/m2
01:49 40.8 °F /  4.9 °C 37.2 °F /  2.9 °C 29.97in /  1014.8hPa Calm     87% 0.00in /  0mm 0 W/m2
01:54 40.8 °F /  4.9 °C 37.2 °F /  2.9 °C 29.97in /  1014.8hPa Calm     87% 0.00in /  0mm 0 W/m2
01:59 40.8 °F /  4.9 °C 37.2 °F /  2.9 °C 29.97in /  1014.8hPa NNW 0.4mph /  0.6km/h 2mph /  3.2km/h 87% 0.00in /  0mm 0 W/m2
02:04 40.8 °F /  4.9 °C 37.2 °F /  2.9 °C 29.97in /  1014.8hPa North 1.6mph /  2.6km/h 3mph /  4.8km/h 87% 0.00in /  0mm 0 W/m2
02:09 40.8 °F /  4.9 °C 37.2 °F /  2.9 °C 29.96in /  1014.4hPa North 0.9mph /  1.4km/h 3mph /  4.8km/h 87% 0.00in /  0mm 0 W/m2
02:14 40.8 °F /  4.9 °C 37.2 °F /  2.9 °C 29.96in /  1014.4hPa North 1.3mph /  2.1km/h 3mph /  4.8km/h 87% 0.00in /  0mm 0 W/m2
02:19 40.6 °F /  4.8 °C 37 °F /  2.8 °C 29.96in /  1014.4hPa North 0.9mph /  1.4km/h 2mph /  3.2km/h 87% 0.00in /  0mm 0 W/m2
02:24 40.6 °F /  4.8 °C 37 °F /  2.8 °C 29.97in /  1014.8hPa North 0.5mph /  0.8km/h 2mph /  3.2km/h 87% 0.00in /  0mm 0 W/m2
02:29 40.5 °F /  4.7 °C 36.9 °F /  2.7 °C 29.97in /  1014.8hPa North 0.2mph /  0.3km/h 2mph /  3.2km/h 87% 0.00in /  0mm 0 W/m2
02:34 40.1 °F /  4.5 °C 36.5 °F /  2.5 °C 29.97in /  1014.8hPa North 0.5mph /  0.8km/h 2mph /  3.2km/h 87% 0.00in /  0mm 0 W/m2
02:39 39.9 °F /  4.4 °C 36.6 °F /  2.6 °C 29.97in /  1014.8hPa North 0.7mph /  1.1km/h 3mph /  4.8km/h 87.8% 0.00in /  0mm 0 W/m2
02:44 39.8 °F /  4.3 °C 36.6 °F /  2.6 °C 29.97in /  1014.8hPa North 1.2mph /  1.9km/h 3mph /  4.8km/h 88% 0.00in /  0mm 0 W/m2
02:49 39.7 °F /  4.3 °C 36.4 °F /  2.4 °C 29.97in /  1014.8hPa North 0.2mph /  0.3km/h 3mph /  4.8km/h 88% 0.00in /  0mm 0 W/m2
02:54 39.5 °F /  4.2 °C 36.2 °F /  2.3 °C 29.98in /  1015.1hPa North 0.9mph /  1.4km/h 2mph /  3.2km/h 88% 0.00in /  0mm 0 W/m2
02:59 39.2 °F /  4 °C 36 °F /  2.2 °C 29.98in /  1015.1hPa North 0.8mph /  1.3km/h 2mph /  3.2km/h 88% 0.00in /  0mm 0 W/m2
03:04 39 °F /  3.9 °C 35.9 °F /  2.2 °C 29.98in /  1015.1hPa North 1.2mph /  1.9km/h 2mph /  3.2km/h 88.2% 0.00in /  0mm 0 W/m2
03:09 38.8 °F /  3.8 °C 36 °F /  2.2 °C 29.98in /  1015.1hPa North 0.6mph /  1km/h 2mph /  3.2km/h 89% 0.00in /  0mm 0 W/m2
03:14 38.7 °F /  3.7 °C 35.8 °F /  2.1 °C 29.98in /  1015.1hPa North 1.1mph /  1.8km/h 2mph /  3.2km/h 89% 0.00in /  0mm 0 W/m2
03:19 38.7 °F /  3.7 °C 35.8 °F /  2.1 °C 29.98in /  1015.1hPa North 0.5mph /  0.8km/h 2mph /  3.2km/h 89% 0.00in /  0mm 0 W/m2
03:24 38.4 °F /  3.6 °C 35.5 °F /  1.9 °C 29.98in /  1015.1hPa North 1.2mph /  1.9km/h 3mph /  4.8km/h 89% 0.00in /  0mm 0 W/m2
03:29 38.1 °F /  3.4 °C 35.2 °F /  1.8 °C 29.98in /  1015.1hPa North 1.2mph /  1.9km/h 4mph /  6.4km/h 89% 0.00in /  0mm 0 W/m2
03:34 38.1 °F /  3.4 °C 35.2 °F /  1.8 °C 29.98in /  1015.1hPa NNW 0.8mph /  1.3km/h 4mph /  6.4km/h 89% 0.00in /  0mm 0 W/m2
03:39 38.3 °F /  3.5 °C 35.5 °F /  1.9 °C 29.98in /  1015.1hPa NNW 0.8mph /  1.3km/h 2mph /  3.2km/h 89.6% 0.00in /  0mm 0 W/m2
03:44 38.5 °F /  3.6 °C 35.8 °F /  2.1 °C 29.98in /  1015.1hPa NNW 0.2mph /  0.3km/h 2mph /  3.2km/h 90% 0.00in /  0mm 0 W/m2
03:49 38.5 °F /  3.6 °C 35.8 °F /  2.1 °C 29.98in /  1015.1hPa Calm   1mph /  1.6km/h 90% 0.00in /  0mm 0 W/m2
03:54 38 °F /  3.3 °C 35.3 °F /  1.8 °C 29.99in /  1015.5hPa NNW 1.2mph /  1.9km/h 2mph /  3.2km/h 90% 0.00in /  0mm 0 W/m2
03:59 37.8 °F /  3.2 °C 35.1 °F /  1.7 °C 29.99in /  1015.5hPa NNW 1.1mph /  1.8km/h 2mph /  3.2km/h 90% 0.00in /  0mm 0 W/m2
04:04 37.9 °F /  3.3 °C 35.2 °F /  1.8 °C 29.99in /  1015.5hPa NNW 2mph /  3.2km/h 3mph /  4.8km/h 90% 0.00in /  0mm 0 W/m2
04:09 37.9 °F /  3.3 °C 35.2 °F /  1.8 °C 29.99in /  1015.5hPa NNW 1.2mph /  1.9km/h 3mph /  4.8km/h 90% 0.00in /  0mm 0 W/m2
04:14 37.9 °F /  3.3 °C 35.2 °F /  1.8 °C 29.99in /  1015.5hPa NNW 0.9mph /  1.4km/h 2mph /  3.2km/h 90% 0.00in /  0mm 0 W/m2
04:19 38 °F /  3.3 °C 35.3 °F /  1.8 °C 30.00in /  1015.8hPa NNW 1.8mph /  2.9km/h 3mph /  4.8km/h 90% 0.00in /  0mm 0 W/m2
04:24 38 °F /  3.3 °C 35.3 °F /  1.8 °C 30.00in /  1015.8hPa NNW 1mph /  1.6km/h 2mph /  3.2km/h 90% 0.00in /  0mm 0 W/m2
04:29 37.9 °F /  3.3 °C 35.2 °F /  1.8 °C 30.00in /  1015.8hPa NNW 1.8mph /  2.9km/h 3mph /  4.8km/h 90% 0.00in /  0mm 0 W/m2
04:34 38.1 °F /  3.4 °C 35.6 °F /  2 °C 30.00in /  1015.8hPa NNW 1.1mph /  1.8km/h 2mph /  3.2km/h 90.6% 0.00in /  0mm 0 W/m2
04:39 38.2 °F /  3.4 °C 35.9 °F /  2.2 °C 30.00in /  1015.8hPa NNW 0.5mph /  0.8km/h 2mph /  3.2km/h 91% 0.00in /  0mm 0 W/m2
04:44 38.3 °F /  3.5 °C 36 °F /  2.2 °C 30.00in /  1015.8hPa North 1.7mph /  2.7km/h 3mph /  4.8km/h 91% 0.00in /  0mm 0 W/m2
04:49 38.6 °F /  3.7 °C 36.2 °F /  2.3 °C 30.00in /  1015.8hPa North 1.4mph /  2.3km/h 3mph /  4.8km/h 91% 0.00in /  0mm 0 W/m2
04:54 38.8 °F /  3.8 °C 36.4 °F /  2.4 °C 30.00in /  1015.8hPa North 1.3mph /  2.1km/h 4mph /  6.4km/h 91% 0.00in /  0mm 0 W/m2
04:59 38.7 °F /  3.7 °C 36.3 °F /  2.4 °C 30.00in /  1015.8hPa North 2.5mph /  4km/h 4mph /  6.4km/h 91% 0.00in /  0mm 0 W/m2
05:04 38.8 °F /  3.8 °C 36.5 °F /  2.5 °C 30.01in /  1016.1hPa North 0.8mph /  1.3km/h 4mph /  6.4km/h 91% 0.00in /  0mm 0 W/m2
05:09 38.8 °F /  3.8 °C 36.5 °F /  2.5 °C 30.01in /  1016.1hPa North 0.2mph /  0.3km/h 2mph /  3.2km/h 91% 0.00in /  0mm 0 W/m2
05:14 38.8 °F /  3.8 °C 36.5 °F /  2.5 °C 30.00in /  1015.8hPa North 0.9mph /  1.4km/h 2mph /  3.2km/h 91% 0.00in /  0mm 0 W/m2
05:19 38.8 °F /  3.8 °C 36.5 °F /  2.5 °C 30.00in /  1015.8hPa North 1.8mph /  2.9km/h 3mph /  4.8km/h 91% 0.00in /  0mm 0 W/m2
05:24 38.8 °F /  3.8 °C 36.5 °F /  2.5 °C 30.00in /  1015.8hPa North 0.2mph /  0.3km/h 2mph /  3.2km/h 91% 0.00in /  0mm 0 W/m2
05:29 38.8 °F /  3.8 °C 36.5 °F /  2.5 °C 30.00in /  1015.8hPa North 1.3mph /  2.1km/h 2mph /  3.2km/h 91% 0.00in /  0mm 0 W/m2
05:34 38.7 °F /  3.7 °C 36.3 °F /  2.4 °C 30.01in /  1016.1hPa North 0.9mph /  1.4km/h 2mph /  3.2km/h 91% 0.00in /  0mm 0 W/m2
05:39 38.5 °F /  3.6 °C 36.1 °F /  2.3 °C 30.01in /  1016.1hPa North 0.4mph /  0.6km/h 2mph /  3.2km/h 91% 0.00in /  0mm 0 W/m2
05:44 38.1 °F /  3.4 °C 35.8 °F /  2.1 °C 30.00in /  1015.8hPa North 1.3mph /  2.1km/h 2mph /  3.2km/h 91% 0.00in /  0mm 0 W/m2
05:49 37.9 °F /  3.3 °C 35.6 °F /  2 °C 30.00in /  1015.8hPa North 0.2mph /  0.3km/h 2mph /  3.2km/h 91% 0.00in /  0mm 0 W/m2
05:54 37.5 °F /  3.1 °C 35.2 °F /  1.8 °C 30.01in /  1016.1hPa North 1.8mph /  2.9km/h 3mph /  4.8km/h 91% 0.00in /  0mm 0 W/m2
05:59 37.2 °F /  2.9 °C 34.9 °F /  1.6 °C 30.01in /  1016.1hPa North 2.5mph /  4km/h 4mph /  6.4km/h 91% 0.00in /  0mm 0 W/m2
06:04 37.5 °F /  3.1 °C 35.1 °F /  1.7 °C 30.01in /  1016.1hPa North 2.5mph /  4km/h 4mph /  6.4km/h 91% 0.00in /  0mm 0 W/m2
06:09 37.4 °F /  3 °C 35.1 °F /  1.7 °C 30.01in /  1016.1hPa North 2.4mph /  3.9km/h 3mph /  4.8km/h 91.4% 0.00in /  0mm 0 W/m2
06:14 37.4 °F /  3 °C 35.2 °F /  1.8 °C 30.00in /  1015.8hPa North 1.4mph /  2.3km/h 3mph /  4.8km/h 92% 0.00in /  0mm 0 W/m2
06:19 37.4 °F /  3 °C 35.2 °F /  1.8 °C 30.00in /  1015.8hPa North 0.7mph /  1.1km/h 3mph /  4.8km/h 92% 0.00in /  0mm 0 W/m2
06:24 37.3 °F /  2.9 °C 35.2 °F /  1.8 °C 30.00in /  1015.8hPa North 0.2mph /  0.3km/h 2mph /  3.2km/h 92% 0.00in /  0mm 0 W/m2
06:29 37.2 °F /  2.9 °C 35.1 °F /  1.7 °C 30.00in /  1015.8hPa Calm     92% 0.00in /  0mm 0 W/m2
06:34 37 °F /  2.8 °C 34.9 °F /  1.6 °C 30.01in /  1016.1hPa North 0.6mph /  1km/h 3mph /  4.8km/h 92% 0.00in /  0mm 0 W/m2
06:39 37 °F /  2.8 °C 34.9 °F /  1.6 °C 30.01in /  1016.1hPa North 1.7mph /  2.7km/h 3mph /  4.8km/h 92% 0.00in /  0mm 0 W/m2
06:43 37.6 °F /  3.1 °C 35.4 °F /  1.9 °C 30.01in /  1016.1hPa North 2.2mph /  3.5km/h 5mph /  8km/h 92% 0.00in /  0mm 0 W/m2
06:49 37.7 °F /  3.2 °C 35.5 °F /  1.9 °C 30.01in /  1016.1hPa North 0.5mph /  0.8km/h 3mph /  4.8km/h 92% 0.00in /  0mm 0 W/m2
06:54 37.6 °F /  3.1 °C 35.4 °F /  1.9 °C 30.01in /  1016.1hPa North 2mph /  3.2km/h 3mph /  4.8km/h 92% 0.00in /  0mm 0 W/m2
06:59 37.9 °F /  3.3 °C 35.7 °F /  2.1 °C 30.01in /  1016.1hPa North 0.8mph /  1.3km/h 3mph /  4.8km/h 92% 0.00in /  0mm 0 W/m2
07:04 37.8 °F /  3.2 °C 35.6 °F /  2 °C 30.01in /  1016.1hPa Calm   1mph /  1.6km/h 92% 0.00in /  0mm 0 W/m2
07:09 37.7 °F /  3.2 °C 35.5 °F /  1.9 °C 30.01in /  1016.1hPa North 1.2mph /  1.9km/h 3mph /  4.8km/h 92% 0.00in /  0mm 0 W/m2
07:14 37.8 °F /  3.2 °C 35.6 °F /  2 °C 30.01in /  1016.1hPa North 1mph /  1.6km/h 3mph /  4.8km/h 92% 0.00in /  0mm 0 W/m2
07:19 38.2 °F /  3.4 °C 36 °F /  2.2 °C 30.01in /  1016.1hPa NW 0.9mph /  1.4km/h 3mph /  4.8km/h 92% 0.00in /  0mm 0 W/m2
07:24 37.5 °F /  3.1 °C 35.3 °F /  1.8 °C 30.01in /  1016.1hPa West 0.7mph /  1.1km/h 3mph /  4.8km/h 92% 0.00in /  0mm 0 W/m2
07:29 37 °F /  2.8 °C 34.9 °F /  1.6 °C 30.01in /  1016.1hPa NW 1.2mph /  1.9km/h 3mph /  4.8km/h 92% 0.00in /  0mm 0 W/m2
07:34 37 °F /  2.8 °C 34.9 °F /  1.6 °C 30.01in /  1016.1hPa NNE 2.4mph /  3.9km/h 5mph /  8km/h 92% 0.00in /  0mm 5 W/m2
07:39 37.2 °F /  2.9 °C 35.1 °F /  1.7 °C 30.01in /  1016.1hPa NE 1.4mph /  2.3km/h 3mph /  4.8km/h 92% 0.00in /  0mm 11 W/m2
07:44 38 °F /  3.3 °C 36.2 °F /  2.3 °C 30.01in /  1016.1hPa ENE 1.5mph /  2.4km/h 5mph /  8km/h 93% 0.00in /  0mm 14 W/m2
07:49 38.2 °F /  3.4 °C 36.4 °F /  2.4 °C 30.01in /  1016.1hPa NNE 2.1mph /  3.4km/h 4mph /  6.4km/h 93% 0.00in /  0mm 19 W/m2
07:54 38.5 °F /  3.6 °C 36.7 °F /  2.6 °C 30.01in /  1016.1hPa NNW 1.2mph /  1.9km/h 4mph /  6.4km/h 93% 0.00in /  0mm 26 W/m2
07:59 38.9 °F /  3.8 °C 37.1 °F /  2.8 °C 30.02in /  1016.5hPa NNW 2.4mph /  3.9km/h 4mph /  6.4km/h 93% 0.00in /  0mm 28 W/m2
08:04 39.2 °F /  4 °C 37.4 °F /  3 °C 30.02in /  1016.5hPa NNW 2.1mph /  3.4km/h 4mph /  6.4km/h 93% 0.00in /  0mm 28 W/m2
08:09 39.6 °F /  4.2 °C 37.8 °F /  3.2 °C 30.02in /  1016.5hPa SW 0.7mph /  1.1km/h 3mph /  4.8km/h 93% 0.00in /  0mm 30 W/m2
08:14 39.5 °F /  4.2 °C 37.7 °F /  3.2 °C 30.02in /  1016.5hPa SSW 0.6mph /  1km/h 3mph /  4.8km/h 93% 0.00in /  0mm 33 W/m2
08:19 39.4 °F /  4.1 °C 37.6 °F /  3.1 °C 30.03in /  1016.8hPa SSW 0.8mph /  1.3km/h 3mph /  4.8km/h 93% 0.00in /  0mm 46 W/m2
08:24 39.5 °F /  4.2 °C 37.7 °F /  3.2 °C 30.03in /  1016.8hPa WSW 0.6mph /  1km/h 2mph /  3.2km/h 93% 0.00in /  0mm 54 W/m2
08:29 40.4 °F /  4.7 °C 38.6 °F /  3.7 °C 30.02in /  1016.5hPa SW 0.8mph /  1.3km/h 4mph /  6.4km/h 93% 0.00in /  0mm 62 W/m2
08:34 41.3 °F /  5.2 °C 39.5 °F /  4.2 °C 30.02in /  1016.5hPa SW 0.2mph /  0.3km/h 1mph /  1.6km/h 93% 0.00in /  0mm 79 W/m2
08:39 42.2 °F /  5.7 °C 40.4 °F /  4.7 °C 30.02in /  1016.5hPa SSW 1.6mph /  2.6km/h 3mph /  4.8km/h 93% 0.00in /  0mm 90 W/m2
08:44 43.3 °F /  6.3 °C 41.5 °F /  5.3 °C 30.02in /  1016.5hPa SE 0.4mph /  0.6km/h 4mph /  6.4km/h 93% 0.00in /  0mm 118 W/m2
08:49 44 °F /  6.7 °C 42 °F /  5.6 °C 30.02in /  1016.5hPa SSW 1.2mph /  1.9km/h 4mph /  6.4km/h 93% 0.00in /  0mm 123 W/m2
08:54 44.1 °F /  6.7 °C 42.1 °F /  5.6 °C 30.03in /  1016.8hPa WSW 0.9mph /  1.4km/h 5mph /  8km/h 92.8% 0.00in /  0mm 120 W/m2
08:59 44.6 °F /  7 °C 42.4 °F /  5.8 °C 30.03in /  1016.8hPa SSW 2.1mph /  3.4km/h 8mph /  12.9km/h 92% 0.00in /  0mm 65 W/m2
09:04 45 °F /  7.2 °C 42.8 °F /  6 °C 30.03in /  1016.8hPa SSW 3mph /  4.8km/h 8mph /  12.9km/h 92% 0.00in /  0mm 49 W/m2
09:09 45.2 °F /  7.3 °C 42.8 °F /  6 °C 30.03in /  1016.8hPa SSW 4mph /  6.4km/h 8mph /  12.9km/h 91.2% 0.00in /  0mm 49 W/m2
09:14 45.3 °F /  7.4 °C 42.8 °F /  6 °C 30.02in /  1016.5hPa SSW 3.7mph /  6km/h 9mph /  14.5km/h 91% 0.00in /  0mm 58 W/m2
09:19 45.8 °F /  7.7 °C 43.2 °F /  6.2 °C 30.02in /  1016.5hPa SW 7.2mph /  11.6km/h 14mph /  22.5km/h 90.6% 0.00in /  0mm 107 W/m2
09:24 46.5 °F /  8.1 °C 43.8 °F /  6.6 °C 30.02in /  1016.5hPa South 7.4mph /  11.9km/h 16mph /  25.7km/h 90% 0.00in /  0mm 118 W/m2
09:29 46.8 °F /  8.2 °C 43.7 °F /  6.5 °C 30.01in /  1016.1hPa SSW 6.6mph /  10.6km/h 14mph /  22.5km/h 89% 0.00in /  0mm 125 W/m2
09:34 47.2 °F /  8.4 °C 43.9 °F /  6.6 °C 30.01in /  1016.1hPa SW 8.2mph /  13.2km/h 17mph /  27.4km/h 88.2% 0.00in /  0mm 153 W/m2
09:39 47.6 °F /  8.7 °C 44 °F /  6.7 °C 30.01in /  1016.1hPa SW 7.1mph /  11.4km/h 13mph /  20.9km/h 87.2% 0.00in /  0mm 158 W/m2
09:44 47.7 °F /  8.7 °C 44.1 °F /  6.7 °C 30.01in /  1016.1hPa SSW 3.2mph /  5.1km/h 10mph /  16.1km/h 87% 0.00in /  0mm 134 W/m2
09:49 47.8 °F /  8.8 °C 44.2 °F /  6.8 °C 30.01in /  1016.1hPa SW 3.7mph /  6km/h 7mph /  11.3km/h 87% 0.00in /  0mm 169 W/m2
09:54 47.9 °F /  8.8 °C 44.3 °F /  6.8 °C 30.01in /  1016.1hPa SSW 4.5mph /  7.2km/h 10mph /  16.1km/h 87% 0.00in /  0mm 179 W/m2
09:59 48.4 °F /  9.1 °C 44.5 °F /  6.9 °C 30.01in /  1016.1hPa SW 5mph /  8km/h 12mph /  19.3km/h 86.2% 0.00in /  0mm 183 W/m2
10:04 48.7 °F /  9.3 °C 44.7 °F /  7.1 °C 30.01in /  1016.1hPa SSW 2.8mph /  4.5km/h 8mph /  12.9km/h 86% 0.00in /  0mm 98 W/m2
10:09 48.7 °F /  9.3 °C 44.8 °F /  7.1 °C 30.01in /  1016.1hPa SSW 3.7mph /  6km/h 9mph /  14.5km/h 86% 0.00in /  0mm 90 W/m2
10:13 48.9 °F /  9.4 °C 44.9 °F /  7.2 °C 30.01in /  1016.1hPa SW 5.8mph /  9.3km/h 12mph /  19.3km/h 85.8% 0.00in /  0mm 107 W/m2
10:19 49 °F /  9.4 °C 44.7 °F /  7.1 °C 30.01in /  1016.1hPa WSW 2.5mph /  4km/h 6mph /  9.7km/h 85% 0.00in /  0mm 172 W/m2
10:24 49.4 °F /  9.7 °C 45.2 °F /  7.3 °C 30.01in /  1016.1hPa South 3.2mph /  5.1km/h 9mph /  14.5km/h 85.4% 0.00in /  0mm 236 W/m2
10:29 49.8 °F /  9.9 °C 45.4 °F /  7.4 °C 30.01in /  1016.1hPa SSW 4.6mph /  7.4km/h 14mph /  22.5km/h 84.8% 0.00in /  0mm 276 W/m2
10:34 50.5 °F /  10.3 °C 45.8 °F /  7.7 °C 30.00in /  1015.8hPa SSW 3.9mph /  6.3km/h 14mph /  22.5km/h 83.8% 0.00in /  0mm 311 W/m2
10:39 51 °F /  10.6 °C 45.9 °F /  7.7 °C 30.00in /  1015.8hPa SSW 6mph /  9.7km/h 17mph /  27.4km/h 82.4% 0.00in /  0mm 378 W/m2
10:44 51.3 °F /  10.7 °C 45.9 °F /  7.7 °C 29.99in /  1015.5hPa South 6.1mph /  9.8km/h 15mph /  24.1km/h 81.4% 0.00in /  0mm 322 W/m2
10:49 51.5 °F /  10.8 °C 45.9 °F /  7.7 °C 29.99in /  1015.5hPa SW 5.5mph /  8.9km/h 18mph /  29km/h 81% 0.00in /  0mm 329 W/m2
10:54 51.6 °F /  10.9 °C 45.7 °F /  7.6 °C 29.98in /  1015.1hPa SSW 9.2mph /  14.8km/h 20mph /  32.2km/h 80% 0.00in /  0mm 345 W/m2
10:59 51.5 °F /  10.8 °C 45.6 °F /  7.6 °C 29.98in /  1015.1hPa SW 10mph /  16.1km/h 21mph /  33.8km/h 80% 0.00in /  0mm 322 W/m2
11:04 51.6 °F /  10.9 °C 45.7 °F /  7.6 °C 29.99in /  1015.5hPa SW 10.6mph /  17.1km/h 21mph /  33.8km/h 80% 0.00in /  0mm 369 W/m2
11:09 51.8 °F /  11 °C 45.5 °F /  7.5 °C 30.00in /  1015.8hPa SSW 11.1mph /  17.9km/h 23mph /  37km/h 79.2% 0.00in /  0mm 378 W/m2
11:14 52.2 °F /  11.2 °C 45.9 °F /  7.7 °C 30.00in /  1015.8hPa SSW 13.8mph /  22.2km/h 21mph /  33.8km/h 79.2% 0.00in /  0mm 396 W/m2
11:19 52.2 °F /  11.2 °C 45.9 °F /  7.7 °C 30.01in /  1016.1hPa SW 11mph /  17.7km/h 22mph /  35.4km/h 79% 0.00in /  0mm 420 W/m2
11:24 52.5 °F /  11.4 °C 46.2 °F /  7.9 °C 30.01in /  1016.1hPa WSW 9mph /  14.5km/h 22mph /  35.4km/h 78.8% 0.00in /  0mm 420 W/m2
11:29 52.7 °F /  11.5 °C 46.1 °F /  7.8 °C 30.01in /  1016.1hPa SW 10.2mph /  16.4km/h 18mph /  29km/h 78% 0.00in /  0mm 367 W/m2
11:34 52.5 °F /  11.4 °C 45.8 °F /  7.7 °C 30.01in /  1016.1hPa WSW 10.8mph /  17.4km/h 24mph /  38.6km/h 78% 0.00in /  0mm 281 W/m2
11:39 52.3 °F /  11.3 °C 45.7 °F /  7.6 °C 30.01in /  1016.1hPa WSW 8.6mph /  13.8km/h 24mph /  38.6km/h 78% 0.00in /  0mm 234 W/m2
11:44 52.2 °F /  11.2 °C 45.5 °F /  7.5 °C 30.01in /  1016.1hPa SSW 9.6mph /  15.4km/h 21mph /  33.8km/h 78% 0.00in /  0mm 155 W/m2
11:49 52 °F /  11.1 °C 45.3 °F /  7.4 °C 30.01in /  1016.1hPa SW 12.2mph /  19.6km/h 27mph /  43.5km/h 78% 0.00in /  0mm 56 W/m2
11:54 51.8 °F /  11 °C 45.1 °F /  7.3 °C 30.01in /  1016.1hPa WSW 9.2mph /  14.8km/h 20mph /  32.2km/h 78% 0.00in /  0mm 49 W/m2
11:59 51.6 °F /  10.9 °C 45.1 °F /  7.3 °C 30.01in /  1016.1hPa SW 9mph /  14.5km/h 25mph /  40.2km/h 78.2% 0.00in /  0mm 51 W/m2
12:04 51.6 °F /  10.9 °C 45.2 °F /  7.3 °C 30.01in /  1016.1hPa SW 13.6mph /  21.9km/h 22mph /  35.4km/h 78.6% 0.00in /  0mm 58 W/m2
12:09 51.6 °F /  10.9 °C 45.3 °F /  7.4 °C 30.01in /  1016.1hPa SW 10.8mph /  17.4km/h 21mph /  33.8km/h 79% 0.00in /  0mm 144 W/m2
12:14 51.6 °F /  10.9 °C 45.3 °F /  7.4 °C 30.00in /  1015.8hPa SW 6.6mph /  10.6km/h 22mph /  35.4km/h 79% 0.00in /  0mm 165 W/m2
12:19 51.6 °F /  10.9 °C 45.3 °F /  7.4 °C 29.99in /  1015.5hPa SW 7.4mph /  11.9km/h 19mph /  30.6km/h 79% 0.00in /  0mm 171 W/m2
12:24 51.6 °F /  10.9 °C 45.3 °F /  7.4 °C 29.98in /  1015.1hPa SSW 9.2mph /  14.8km/h 18mph /  29km/h 79% 0.00in /  0mm 178 W/m2
12:29 51.6 °F /  10.9 °C 45.7 °F /  7.6 °C 29.98in /  1015.1hPa SW 10.6mph /  17.1km/h 19mph /  30.6km/h 80% 0.00in /  0mm 185 W/m2
12:34 51.8 °F /  11 °C 45.9 °F /  7.7 °C 29.97in /  1014.8hPa SW 9.2mph /  14.8km/h 22mph /  35.4km/h 80% 0.00in /  0mm 190 W/m2
12:39 52 °F /  11.1 °C 46 °F /  7.8 °C 29.97in /  1014.8hPa SW 9.4mph /  15.1km/h 17mph /  27.4km/h 80% 0.00in /  0mm 214 W/m2
12:44 52.1 °F /  11.2 °C 46.1 °F /  7.8 °C 29.97in /  1014.8hPa SW 13mph /  20.9km/h 23mph /  37km/h 80% 0.00in /  0mm 292 W/m2
12:49 52.2 °F /  11.2 °C 46.2 °F /  7.9 °C 29.97in /  1014.8hPa SW 15mph /  24.1km/h 21mph /  33.8km/h 80% 0.00in /  0mm 246 W/m2
12:54 52.2 °F /  11.2 °C 46.2 °F /  7.9 °C 29.97in /  1014.8hPa SSW 10.5mph /  16.9km/h 23mph /  37km/h 80% 0.00in /  0mm 260 W/m2
12:59 52.2 °F /  11.2 °C 46.4 °F /  8 °C 29.97in /  1014.8hPa SSW 12mph /  19.3km/h 21mph /  33.8km/h 80.4% 0.00in /  0mm 267 W/m2
13:04 52.2 °F /  11.2 °C 46.6 °F /  8.1 °C 29.97in /  1014.8hPa SSW 10.2mph /  16.4km/h 22mph /  35.4km/h 81% 0.00in /  0mm 220 W/m2
13:09 52.2 °F /  11.2 °C 46.6 °F /  8.1 °C 29.97in /  1014.8hPa SW 8.6mph /  13.8km/h 18mph /  29km/h 81% 0.00in /  0mm 220 W/m2
13:14 52.2 °F /  11.2 °C 46.7 °F /  8.2 °C 29.97in /  1014.8hPa SSW 7.5mph /  12.1km/h 18mph /  29km/h 81.6% 0.00in /  0mm 207 W/m2
13:19 52.3 °F /  11.3 °C 46.9 °F /  8.3 °C 29.97in /  1014.8hPa SW 10.1mph /  16.3km/h 18mph /  29km/h 82% 0.00in /  0mm 176 W/m2
13:24 52.2 °F /  11.2 °C 46.8 °F /  8.2 °C 29.98in /  1015.1hPa SSW 9mph /  14.5km/h 16mph /  25.7km/h 82% 0.00in /  0mm 125 W/m2
13:28 52.2 °F /  11.2 °C 47 °F /  8.3 °C 29.98in /  1015.1hPa SSW 6.3mph /  10.1km/h 17mph /  27.4km/h 82.8% 0.00in /  0mm 70 W/m2
13:34 52.1 °F /  11.2 °C 47 °F /  8.3 °C 29.97in /  1014.8hPa SSW 7.2mph /  11.6km/h 13mph /  20.9km/h 83% 0.00in /  0mm 54 W/m2
13:39 52 °F /  11.1 °C 47.2 °F /  8.4 °C 29.97in /  1014.8hPa SSW 6.6mph /  10.6km/h 13mph /  20.9km/h 83.8% 0.00in /  0mm 53 W/m2
13:44 51.9 °F /  11.1 °C 47.3 °F /  8.5 °C 29.97in /  1014.8hPa SSW 7.8mph /  12.6km/h 17mph /  27.4km/h 84.2% 0.00in /  0mm 49 W/m2
13:49 51.8 °F /  11 °C 47.5 °F /  8.6 °C 29.97in /  1014.8hPa SW 7.6mph /  12.2km/h 19mph /  30.6km/h 85% 0.00in /  0mm 47 W/m2
13:54 51.7 °F /  10.9 °C 47.4 °F /  8.6 °C 29.97in /  1014.8hPa SSW 4.5mph /  7.2km/h 14mph /  22.5km/h 85% 0.00in /  0mm 51 W/m2
13:59 51.7 °F /  10.9 °C 47.6 °F /  8.7 °C 29.97in /  1014.8hPa SW 6.7mph /  10.8km/h 11mph /  17.7km/h 86% 0.00in /  0mm 49 W/m2
14:04 51.8 °F /  11 °C 47.7 °F /  8.7 °C 29.97in /  1014.8hPa SW 7.2mph /  11.6km/h 13mph /  20.9km/h 86% 0.00in /  0mm 47 W/m2
14:09 52 °F /  11.1 °C 47.8 °F /  8.8 °C 29.97in /  1014.8hPa WSW 11.4mph /  18.3km/h 15mph /  24.1km/h 86% 0.00in /  0mm 49 W/m2
14:14 52 °F /  11.1 °C 47.8 °F /  8.8 °C 29.97in /  1014.8hPa South 5.5mph /  8.9km/h 15mph /  24.1km/h 86% 0.00in /  0mm 91 W/m2
14:19 52.1 °F /  11.2 °C 48.2 °F /  9 °C 29.96in /  1014.4hPa SSW 8.2mph /  13.2km/h 12mph /  19.3km/h 86.8% 0.00in /  0mm 114 W/m2
14:24 52.2 °F /  11.2 °C 48.4 °F /  9.1 °C 29.96in /  1014.4hPa SW 8.8mph /  14.2km/h 18mph /  29km/h 87% 0.00in /  0mm 130 W/m2
14:29 52.2 °F /  11.2 °C 48.4 °F /  9.1 °C 29.96in /  1014.4hPa SSW 10.4mph /  16.7km/h 20mph /  32.2km/h 87% 0.00in /  0mm 144 W/m2
14:34 52.2 °F /  11.2 °C 48.4 °F /  9.1 °C 29.96in /  1014.4hPa SSW 8.4mph /  13.5km/h 22mph /  35.4km/h 87% 0.00in /  0mm 162 W/m2
14:39 52.3 °F /  11.3 °C 48.6 °F /  9.2 °C 29.96in /  1014.4hPa SSW 9.8mph /  15.8km/h 23mph /  37km/h 87% 0.00in /  0mm 153 W/m2
14:44 52.3 °F /  11.3 °C 48.6 °F /  9.2 °C 29.96in /  1014.4hPa SW 13.6mph /  21.9km/h 23mph /  37km/h 87% 0.00in /  0mm 135 W/m2
14:49 52.3 °F /  11.3 °C 48.6 °F /  9.2 °C 29.96in /  1014.4hPa SW 9.5mph /  15.3km/h 19mph /  30.6km/h 87% 0.00in /  0mm 84 W/m2
14:54 52.2 °F /  11.2 °C 48.4 °F /  9.1 °C 29.96in /  1014.4hPa SSW 9.6mph /  15.4km/h 18mph /  29km/h 87% 0.00in /  0mm 69 W/m2
14:59 52.2 °F /  11.2 °C 48.4 °F /  9.1 °C 29.96in /  1014.4hPa SSW 8.6mph /  13.8km/h 18mph /  29km/h 87% 0.00in /  0mm 56 W/m2
15:04 52.2 °F /  11.2 °C 48.4 °F /  9.1 °C 29.96in /  1014.4hPa SSW 11.2mph /  18km/h 20mph /  32.2km/h 87% 0.00in /  0mm 53 W/m2
15:09 52.2 °F /  11.2 °C 48.4 °F /  9.1 °C 29.96in /  1014.4hPa SW 9.4mph /  15.1km/h 17mph /  27.4km/h 87% 0.00in /  0mm 40 W/m2
15:14 52.1 °F /  11.2 °C 48.5 °F /  9.2 °C 29.96in /  1014.4hPa SW 5.2mph /  8.4km/h 18mph /  29km/h 87.4% 0.00in /  0mm 40 W/m2
15:19 52 °F /  11.1 °C 48.6 °F /  9.2 °C 29.96in /  1014.4hPa South 8.8mph /  14.2km/h 20mph /  32.2km/h 88% 0.00in /  0mm 40 W/m2
15:24 51.9 °F /  11.1 °C 48.6 °F /  9.2 °C 29.96in /  1014.4hPa SW 8.8mph /  14.2km/h 14mph /  22.5km/h 88.2% 0.00in /  0mm 49 W/m2
15:29 51.6 °F /  10.9 °C 48.6 °F /  9.2 °C 29.96in /  1014.4hPa SSW 8.7mph /  14km/h 17mph /  27.4km/h 89% 0.00in /  0mm 53 W/m2
15:34 51.6 °F /  10.9 °C 48.6 °F /  9.2 °C 29.96in /  1014.4hPa SW 6.8mph /  10.9km/h 15mph /  24.1km/h 89% 0.00in /  0mm 54 W/m2
15:39 51.4 °F /  10.8 °C 48.6 °F /  9.2 °C 29.96in /  1014.4hPa SW 7.4mph /  11.9km/h 13mph /  20.9km/h 90% 0.00in /  0mm 49 W/m2
15:44 51.4 °F /  10.8 °C 48.6 °F /  9.2 °C 29.96in /  1014.4hPa SSW 6.2mph /  10km/h 14mph /  22.5km/h 90% 0.00in /  0mm 40 W/m2
15:49 51.4 °F /  10.8 °C 48.6 °F /  9.2 °C 29.96in /  1014.4hPa South 6.6mph /  10.6km/h 17mph /  27.4km/h 90% 0.00in /  0mm 44 W/m2
15:54 51.4 °F /  10.8 °C 48.6 °F /  9.2 °C 29.96in /  1014.4hPa SSW 9.4mph /  15.1km/h 17mph /  27.4km/h 90% 0.00in /  0mm 44 W/m2
15:59 51.4 °F /  10.8 °C 48.6 °F /  9.2 °C 29.96in /  1014.4hPa SSW 6.4mph /  10.3km/h 12mph /  19.3km/h 90% 0.00in /  0mm 40 W/m2
16:04 51.4 °F /  10.8 °C 48.6 °F /  9.2 °C 29.96in /  1014.4hPa SW 5.2mph /  8.4km/h 10mph /  16.1km/h 90% 0.00in /  0mm 32 W/m2
16:09 51.4 °F /  10.8 °C 48.7 °F /  9.3 °C 29.96in /  1014.4hPa SW 6.9mph /  11.1km/h 12mph /  19.3km/h 90.6% 0.00in /  0mm 19 W/m2
16:14 51.3 °F /  10.7 °C 48.7 °F /  9.3 °C 29.96in /  1014.4hPa SSW 6.6mph /  10.6km/h 16mph /  25.7km/h 91% 0.00in /  0mm 19 W/m2
16:19 51.3 °F /  10.7 °C 48.7 °F /  9.3 °C 29.96in /  1014.4hPa SW 8.6mph /  13.8km/h 16mph /  25.7km/h 91% 0.00in /  0mm 21 W/m2
16:24 51.3 °F /  10.7 °C 48.7 °F /  9.3 °C 29.96in /  1014.4hPa SW 7mph /  11.3km/h 16mph /  25.7km/h 91% 0.00in /  0mm 19 W/m2
16:29 51.3 °F /  10.7 °C 48.7 °F /  9.3 °C 29.96in /  1014.4hPa SSW 5.3mph /  8.5km/h 13mph /  20.9km/h 91% 0.00in /  0mm 19 W/m2
16:34 51.1 °F /  10.6 °C 48.6 °F /  9.2 °C 29.96in /  1014.4hPa SSW 5.4mph /  8.7km/h 15mph /  24.1km/h 91% 0.00in /  0mm 19 W/m2
16:39 51.1 °F /  10.6 °C 48.8 °F /  9.3 °C 29.96in /  1014.4hPa SSW 7.6mph /  12.2km/h 13mph /  20.9km/h 91.6% 0.00in /  0mm 16 W/m2
16:44 51.1 °F /  10.6 °C 48.9 °F /  9.4 °C 29.96in /  1014.4hPa SW 7mph /  11.3km/h 15mph /  24.1km/h 92% 0.00in /  0mm 14 W/m2
16:49 51.1 °F /  10.6 °C 48.9 °F /  9.4 °C 29.96in /  1014.4hPa SSW 6.8mph /  10.9km/h 16mph /  25.7km/h 92% 0.00in /  0mm 18 W/m2
16:54 51.2 °F /  10.7 °C 49 °F /  9.4 °C 29.95in /  1014.1hPa SW 9.8mph /  15.8km/h 15mph /  24.1km/h 92% 0.00in /  0mm 11 W/m2
16:59 51.3 °F /  10.7 °C 49.1 °F /  9.5 °C 29.96in /  1014.4hPa SSW 6.2mph /  10km/h 12mph /  19.3km/h 92% 0.00in /  0mm 9 W/m2
17:04 51.3 °F /  10.7 °C 49.1 °F /  9.5 °C 29.96in /  1014.4hPa SSW 7.2mph /  11.6km/h 17mph /  27.4km/h 92% 0.00in /  0mm 7 W/m2
17:09 51.3 °F /  10.7 °C 49.1 °F /  9.5 °C 29.96in /  1014.4hPa SSW 7.2mph /  11.6km/h 17mph /  27.4km/h 92% 0.00in /  0mm 5 W/m2
17:14 51.3 °F /  10.7 °C 49.1 °F /  9.5 °C 29.96in /  1014.4hPa SSW 7.6mph /  12.2km/h 14mph /  22.5km/h 92% 0.00in /  0mm 0 W/m2
17:19 51.3 °F /  10.7 °C 49.1 °F /  9.5 °C 29.96in /  1014.4hPa SSW 5.2mph /  8.4km/h 11mph /  17.7km/h 92% 0.00in /  0mm 0 W/m2
17:24 51.3 °F /  10.7 °C 49.1 °F /  9.5 °C 29.96in /  1014.4hPa SSW 5mph /  8km/h 10mph /  16.1km/h 92% 0.00in /  0mm 0 W/m2
17:29 51.3 °F /  10.7 °C 49.1 °F /  9.5 °C 29.96in /  1014.4hPa SSW 6.1mph /  9.8km/h 14mph /  22.5km/h 92% 0.01in /  0.25mm 0 W/m2
17:34 51.3 °F /  10.7 °C 49.1 °F /  9.5 °C 29.96in /  1014.4hPa SSW 5.2mph /  8.4km/h 13mph /  20.9km/h 92% 0.01in /  0.25mm 0 W/m2
17:39 51.3 °F /  10.7 °C 49.1 °F /  9.5 °C 29.96in /  1014.4hPa SSW 7.1mph /  11.4km/h 13mph /  20.9km/h 92% 0.01in /  0.25mm 0 W/m2
17:44 51.4 °F /  10.8 °C 49.3 °F /  9.6 °C 29.96in /  1014.4hPa SSW 8.6mph /  13.8km/h 17mph /  27.4km/h 92% 0.01in /  0.25mm 0 W/m2
17:49 51.4 °F /  10.8 °C 49.3 °F /  9.6 °C 29.96in /  1014.4hPa SSW 8mph /  12.9km/h 17mph /  27.4km/h 92% 0.01in /  0.25mm 0 W/m2
17:54 51.4 °F /  10.8 °C 49.3 °F /  9.6 °C 29.96in /  1014.4hPa SSW 6.8mph /  10.9km/h 22mph /  35.4km/h 92% 0.01in /  0.25mm 0 W/m2
17:59 51.4 °F /  10.8 °C 49.3 °F /  9.6 °C 29.96in /  1014.4hPa SSW 5.3mph /  8.5km/h 11mph /  17.7km/h 92% 0.01in /  0.25mm 0 W/m2
18:04 51.4 °F /  10.8 °C 49.3 °F /  9.6 °C 29.96in /  1014.4hPa SSW 7.1mph /  11.4km/h 12mph /  19.3km/h 92% 0.01in /  0.25mm 0 W/m2
18:09 51.4 °F /  10.8 °C 49.3 °F /  9.6 °C 29.96in /  1014.4hPa SSW 7.8mph /  12.6km/h 15mph /  24.1km/h 92% 0.02in /  0.51mm 0 W/m2
18:14 51.4 °F /  10.8 °C 49.3 °F /  9.6 °C 29.96in /  1014.4hPa SSW 5.8mph /  9.3km/h 13mph /  20.9km/h 92% 0.02in /  0.51mm 0 W/m2
18:19 51.4 °F /  10.8 °C 49.3 °F /  9.6 °C 29.96in /  1014.4hPa SSW 4.8mph /  7.7km/h 11mph /  17.7km/h 92% 0.02in /  0.51mm 0 W/m2
18:24 51.4 °F /  10.8 °C 49.3 °F /  9.6 °C 29.96in /  1014.4hPa SW 4.5mph /  7.2km/h 10mph /  16.1km/h 92% 0.02in /  0.51mm 0 W/m2
18:29 51.4 °F /  10.8 °C 49.3 °F /  9.6 °C 29.96in /  1014.4hPa SW 4.1mph /  6.6km/h 9mph /  14.5km/h 92% 0.03in /  0.76mm 0 W/m2
18:34 51.4 °F /  10.8 °C 49.3 °F /  9.6 °C 29.96in /  1014.4hPa SSW 6mph /  9.7km/h 14mph /  22.5km/h 92% 0.02in /  0.51mm 0 W/m2
18:39 51.5 °F /  10.8 °C 49.4 °F /  9.7 °C 29.96in /  1014.4hPa SW 6.4mph /  10.3km/h 13mph /  20.9km/h 92% 0.02in /  0.51mm 0 W/m2
18:44 51.6 °F /  10.9 °C 49.5 °F /  9.7 °C 29.95in /  1014.1hPa SW 7mph /  11.3km/h 14mph /  22.5km/h 92% 0.02in /  0.51mm 0 W/m2
18:49 51.6 °F /  10.9 °C 49.5 °F /  9.7 °C 29.95in /  1014.1hPa SSW 6.3mph /  10.1km/h 14mph /  22.5km/h 92% 0.02in /  0.51mm 0 W/m2
18:54 51.6 °F /  10.9 °C 49.6 °F /  9.8 °C 29.95in /  1014.1hPa SW 5.1mph /  8.2km/h 15mph /  24.1km/h 92.4% 0.02in /  0.51mm 0 W/m2
18:59 51.8 °F /  11 °C 49.8 °F /  9.9 °C 29.95in /  1014.1hPa SW 8.8mph /  14.2km/h 15mph /  24.1km/h 93% 0.02in /  0.51mm 0 W/m2
19:04 51.8 °F /  11 °C 49.8 °F /  9.9 °C 29.95in /  1014.1hPa SSW 5.3mph /  8.5km/h 11mph /  17.7km/h 93% 0.02in /  0.51mm 0 W/m2
19:09 51.9 °F /  11.1 °C 49.6 °F /  9.8 °C 29.95in /  1014.1hPa SW 6.6mph /  10.6km/h 15mph /  24.1km/h 92% 0.02in /  0.51mm 0 W/m2
19:14 52 °F /  11.1 °C 49.6 °F /  9.8 °C 29.95in /  1014.1hPa SW 5.8mph /  9.3km/h 11mph /  17.7km/h 92% 0.02in /  0.51mm 0 W/m2
19:19 52 °F /  11.1 °C 49.6 °F /  9.8 °C 29.95in /  1014.1hPa SW 7.4mph /  11.9km/h 15mph /  24.1km/h 92% 0.02in /  0.51mm 0 W/m2
19:24 52 °F /  11.1 °C 49.6 °F /  9.8 °C 29.95in /  1014.1hPa SSW 5.8mph /  9.3km/h 12mph /  19.3km/h 92% 0.01in /  0.25mm 0 W/m2
19:29 52 °F /  11.1 °C 49.6 °F /  9.8 °C 29.95in /  1014.1hPa SW 5.6mph /  9km/h 12mph /  19.3km/h 92% 0.00in /  0mm 0 W/m2
19:34 52 °F /  11.1 °C 49.6 °F /  9.8 °C 29.95in /  1014.1hPa SW 3.7mph /  6km/h 9mph /  14.5km/h 92% 0.00in /  0mm 0 W/m2
19:39 52 °F /  11.1 °C 49.6 °F /  9.8 °C 29.95in /  1014.1hPa SW 5.6mph /  9km/h 9mph /  14.5km/h 92% 0.00in /  0mm 0 W/m2
19:44 52 °F /  11.1 °C 49.6 °F /  9.8 °C 29.95in /  1014.1hPa SW 4.3mph /  6.9km/h 9mph /  14.5km/h 92% 0.00in /  0mm 0 W/m2
19:49 52.1 °F /  11.2 °C 49.7 °F /  9.8 °C 29.95in /  1014.1hPa SW 6.2mph /  10km/h 11mph /  17.7km/h 92% 0.00in /  0mm 0 W/m2
19:54 52.2 °F /  11.2 °C 49.8 °F /  9.9 °C 29.95in /  1014.1hPa SSW 4.8mph /  7.7km/h 11mph /  17.7km/h 92% 0.00in /  0mm 0 W/m2
19:59 52.2 °F /  11.2 °C 49.8 °F /  9.9 °C 29.95in /  1014.1hPa SW 7mph /  11.3km/h 13mph /  20.9km/h 92% 0.00in /  0mm 0 W/m2
20:04 52.2 °F /  11.2 °C 49.8 °F /  9.9 °C 29.94in /  1013.8hPa WSW 8.4mph /  13.5km/h 13mph /  20.9km/h 92% 0.01in /  0.25mm 0 W/m2
20:09 52.2 °F /  11.2 °C 49.8 °F /  9.9 °C 29.94in /  1013.8hPa SW 4.6mph /  7.4km/h 10mph /  16.1km/h 92% 0.01in /  0.25mm 0 W/m2
20:14 52.2 °F /  11.2 °C 49.8 °F /  9.9 °C 29.94in /  1013.8hPa SSW 6.1mph /  9.8km/h 12mph /  19.3km/h 92% 0.01in /  0.25mm 0 W/m2
20:19 52.2 °F /  11.2 °C 49.8 °F /  9.9 °C 29.94in /  1013.8hPa SW 3.7mph /  6km/h 9mph /  14.5km/h 92% 0.01in /  0.25mm 0 W/m2
20:24 52.2 °F /  11.2 °C 49.8 °F /  9.9 °C 29.93in /  1013.4hPa SW 4.4mph /  7.1km/h 11mph /  17.7km/h 92% 0.02in /  0.51mm 0 W/m2
20:29 52 °F /  11.1 °C 49.6 °F /  9.8 °C 29.93in /  1013.4hPa WSW 5.7mph /  9.2km/h 13mph /  20.9km/h 92% 0.02in /  0.51mm 0 W/m2
20:34 52 °F /  11.1 °C 49.9 °F /  9.9 °C 29.93in /  1013.4hPa SW 8mph /  12.9km/h 13mph /  20.9km/h 92.6% 0.02in /  0.51mm 0 W/m2
20:39 52.2 °F /  11.2 °C 50.2 °F /  10.1 °C 29.93in /  1013.4hPa WSW 6.4mph /  10.3km/h 16mph /  25.7km/h 93% 0.02in /  0.51mm 0 W/m2
20:44 52.1 °F /  11.2 °C 50.1 °F /  10.1 °C 29.93in /  1013.4hPa WSW 4.4mph /  7.1km/h 12mph /  19.3km/h 93% 0.02in /  0.51mm 0 W/m2
20:49 52.2 °F /  11.2 °C 50.2 °F /  10.1 °C 29.93in /  1013.4hPa WSW 4.7mph /  7.6km/h 10mph /  16.1km/h 93% 0.02in /  0.51mm 0 W/m2
20:54 52.2 °F /  11.2 °C 50.2 °F /  10.1 °C 29.93in /  1013.4hPa SW 4.6mph /  7.4km/h 8mph /  12.9km/h 93% 0.02in /  0.51mm 0 W/m2
20:59 52.2 °F /  11.2 °C 50.2 °F /  10.1 °C 29.93in /  1013.4hPa SW 5.3mph /  8.5km/h 9mph /  14.5km/h 93% 0.03in /  0.76mm 0 W/m2
21:04 52.2 °F /  11.2 °C 50.2 °F /  10.1 °C 29.93in /  1013.4hPa SW 6mph /  9.7km/h 11mph /  17.7km/h 93% 0.03in /  0.76mm 0 W/m2
21:09 52.2 °F /  11.2 °C 50.2 °F /  10.1 °C 29.93in /  1013.4hPa SW 7.4mph /  11.9km/h 12mph /  19.3km/h 93% 0.02in /  0.51mm 0 W/m2
21:14 52.2 °F /  11.2 °C 50.2 °F /  10.1 °C 29.93in /  1013.4hPa WSW 6.8mph /  10.9km/h 11mph /  17.7km/h 93% 0.03in /  0.76mm 0 W/m2
21:19 52.2 °F /  11.2 °C 50.2 °F /  10.1 °C 29.93in /  1013.4hPa SW 5.7mph /  9.2km/h 13mph /  20.9km/h 93% 0.03in /  0.76mm 0 W/m2
21:24 52.2 °F /  11.2 °C 50.2 °F /  10.1 °C 29.93in /  1013.4hPa SW 6.9mph /  11.1km/h 11mph /  17.7km/h 93% 0.03in /  0.76mm 0 W/m2
21:29 52.2 °F /  11.2 °C 50.2 °F /  10.1 °C 29.93in /  1013.4hPa SW 5.2mph /  8.4km/h 15mph /  24.1km/h 93% 0.02in /  0.51mm 0 W/m2
21:34 52.2 °F /  11.2 °C 50.2 °F /  10.1 °C 29.93in /  1013.4hPa SW 6.4mph /  10.3km/h 11mph /  17.7km/h 93% 0.02in /  0.51mm 0 W/m2
21:39 52.2 °F /  11.2 °C 50.2 °F /  10.1 °C 29.93in /  1013.4hPa SW 6mph /  9.7km/h 11mph /  17.7km/h 93% 0.02in /  0.51mm 0 W/m2
21:44 52.3 °F /  11.3 °C 50.4 °F /  10.2 °C 29.93in /  1013.4hPa SW 7.4mph /  11.9km/h 14mph /  22.5km/h 93% 0.02in /  0.51mm 0 W/m2
21:49 52.3 °F /  11.3 °C 50.4 °F /  10.2 °C 29.93in /  1013.4hPa SW 6.2mph /  10km/h 11mph /  17.7km/h 93% 0.02in /  0.51mm 0 W/m2
21:54 52.3 °F /  11.3 °C 50.4 °F /  10.2 °C 29.92in /  1013.1hPa WSW 6.6mph /  10.6km/h 10mph /  16.1km/h 93% 0.02in /  0.51mm 0 W/m2
21:59 52.3 °F /  11.3 °C 50.4 °F /  10.2 °C 29.93in /  1013.4hPa WSW 6mph /  9.7km/h 10mph /  16.1km/h 93% 0.02in /  0.51mm 0 W/m2
22:04 52.3 °F /  11.3 °C 50.4 °F /  10.2 °C 29.93in /  1013.4hPa WSW 7.2mph /  11.6km/h 12mph /  19.3km/h 93% 0.01in /  0.25mm 0 W/m2
22:09 52.3 °F /  11.3 °C 50.4 °F /  10.2 °C 29.93in /  1013.4hPa SW 4.6mph /  7.4km/h 9mph /  14.5km/h 93% 0.01in /  0.25mm 0 W/m2
22:14 52.3 °F /  11.3 °C 50.4 °F /  10.2 °C 29.93in /  1013.4hPa WSW 4.1mph /  6.6km/h 8mph /  12.9km/h 93% 0.00in /  0mm 0 W/m2
22:19 52.3 °F /  11.3 °C 50.4 °F /  10.2 °C 29.93in /  1013.4hPa SW 6.8mph /  10.9km/h 11mph /  17.7km/h 93% 0.00in /  0mm 0 W/m2
22:24 52.3 °F /  11.3 °C 50.4 °F /  10.2 °C 29.93in /  1013.4hPa WSW 6.2mph /  10km/h 14mph /  22.5km/h 93% 0.00in /  0mm 0 W/m2
22:29 52.3 °F /  11.3 °C 50.4 °F /  10.2 °C 29.93in /  1013.4hPa WSW 5.8mph /  9.3km/h 10mph /  16.1km/h 93% 0.01in /  0.25mm 0 W/m2
22:34 52.3 °F /  11.3 °C 50.4 °F /  10.2 °C 29.93in /  1013.4hPa SW 6.2mph /  10km/h 12mph /  19.3km/h 93% 0.02in /  0.51mm 0 W/m2
22:39 52.3 °F /  11.3 °C 50.4 °F /  10.2 °C 29.93in /  1013.4hPa WSW 5.7mph /  9.2km/h 10mph /  16.1km/h 93% 0.02in /  0.51mm 0 W/m2
22:44 52.2 °F /  11.2 °C 50.2 °F /  10.1 °C 29.93in /  1013.4hPa WSW 4.8mph /  7.7km/h 9mph /  14.5km/h 93% 0.02in /  0.51mm 0 W/m2
22:49 52.2 °F /  11.2 °C 50.2 °F /  10.1 °C 29.92in /  1013.1hPa SW 3.5mph /  5.6km/h 8mph /  12.9km/h 93% 0.03in /  0.76mm 0 W/m2
22:54 52.2 °F /  11.2 °C 50.2 °F /  10.1 °C 29.92in /  1013.1hPa SW 2.8mph /  4.5km/h 7mph /  11.3km/h 93% 0.04in /  1.02mm 0 W/m2
22:59 52.2 °F /  11.2 °C 50.2 °F /  10.1 °C 29.92in /  1013.1hPa SW 5.6mph /  9km/h 9mph /  14.5km/h 93% 0.04in /  1.02mm 0 W/m2
23:04 52.2 °F /  11.2 °C 50.2 °F /  10.1 °C 29.92in /  1013.1hPa SSW 4.1mph /  6.6km/h 9mph /  14.5km/h 93% 0.05in /  1.27mm 0 W/m2
23:09 52.2 °F /  11.2 °C 50.2 °F /  10.1 °C 29.92in /  1013.1hPa SW 6.4mph /  10.3km/h 9mph /  14.5km/h 93% 0.05in /  1.27mm 0 W/m2
23:14 52.2 °F /  11.2 °C 50.2 °F /  10.1 °C 29.92in /  1013.1hPa SW 5mph /  8km/h 9mph /  14.5km/h 93% 0.06in /  1.52mm 0 W/m2
23:19 52.2 °F /  11.2 °C 50.2 °F /  10.1 °C 29.92in /  1013.1hPa SW 3.3mph /  5.3km/h 7mph /  11.3km/h 93% 0.06in /  1.52mm 0 W/m2
23:24 52.1 °F /  11.2 °C 50.1 °F /  10.1 °C 29.92in /  1013.1hPa SW 3.7mph /  6km/h 5mph /  8km/h 93% 0.08in /  2.03mm 0 W/m2
23:29 52 °F /  11.1 °C 50 °F /  10 °C 29.92in /  1013.1hPa SW 2.1mph /  3.4km/h 6mph /  9.7km/h 93% 0.09in /  2.29mm 0 W/m2
23:34 52 °F /  11.1 °C 50 °F /  10 °C 29.91in /  1012.8hPa SW 4mph /  6.4km/h 8mph /  12.9km/h 93% 0.08in /  2.03mm 0 W/m2
23:39 52 °F /  11.1 °C 50 °F /  10 °C 29.91in /  1012.8hPa SSW 3.2mph /  5.1km/h 6mph /  9.7km/h 93% 0.07in /  1.78mm 0 W/m2
23:44 52 °F /  11.1 °C 50 °F /  10 °C 29.91in /  1012.8hPa SW 5mph /  8km/h 7mph /  11.3km/h 93% 0.06in /  1.52mm 0 W/m2
23:49 52 °F /  11.1 °C 50.1 °F /  10.1 °C 29.91in /  1012.8hPa SW 3.4mph /  5.5km/h 7mph /  11.3km/h 93.2% 0.06in /  1.52mm 0 W/m2
23:54 52 °F /  11.1 °C 50.2 °F /  10.1 °C 29.91in /  1012.8hPa SW 2.7mph /  4.3km/h 7mph /  11.3km/h 93.4% 0.06in /  1.52mm 0 W/m2
23:59 52 °F /  11.1 °C 50.2 °F /  10.1 °C 29.91in /  1012.8hPa SW 4mph /  6.4km/h 7mph /  11.3km/h 93.4% 0.05in /  1.27mm 0 W/m2
Bath Spa Weather
Compliments of Weather Underground - 2 mb